Tropical Cyclones
[Index]
Main Index Home Page Stock Weather Photos Extreme Storms Discussion Storm News and Storm Chasing Reports Tropical Cyclones / Hurricanes / Typhoons Weather Data and Links Wild Fires / Bushfires Weather Observation Techniques Weather Picture Catalogue Tornado Pictures and Reports Stock Video Footage and DVDs for sale
Season 1987-1988 Tropical Cyclone BERNANDRO Track Map
Season 1987-1988 Summaries: [BoM-AU] [JTWC-AU] [JTWC-SIO] [JTWC-SPAC] [JTWC-SH]
<<- Previous TC | JTWC 1987-1988 Season | Next TC ->>

click for intensity scale information  Lat/long Grid: Show Hide

 Date Labels: Show Hide

Joint Typhoon Warning Centre Cyclone Data

Name: BERNANDRO

24 Dec 1987 06:00 UTC to 01 Jan 1988 12:00 UTC

    date/time    lat    long     hPa   cat  kts
1987-12-24 06   10.1    70.1                  25          
1987-12-24 12   10.3    69.3                  25          
1987-12-24 18   10.8    68.6                  25          
1987-12-25 00   11.6    68.1                  25          
1987-12-25 06   12.3    67.8                  25          
1987-12-25 12   12.7    67.9                  25          
1987-12-25 18   12.9    68.4                  25          
1987-12-26 00   13.2    69.0                  30          
1987-12-26 06   13.3    69.5                  30          
1987-12-26 12   13.2    69.7                  30          
1987-12-26 18   13.5    69.9                  30          
1987-12-27 00   13.9    70.1                  35          
1987-12-27 06   13.8    69.7                  35          
1987-12-27 12   13.5    68.7                  35          
1987-12-27 18   13.4    67.8                  35          
1987-12-28 00   13.6    66.9                  35          
1987-12-28 06   13.7    65.6                  35          
1987-12-28 12   13.5    64.2                  35          
1987-12-28 18   13.2    63.1                  35          
1987-12-29 00   13.0    62.1                  35          
1987-12-29 06   12.8    60.9                  35          
1987-12-29 12   12.9    59.9                  35          
1987-12-29 18   13.4    59.2                  35          
1987-12-30 00   14.1    58.5                  35          
1987-12-30 06   14.6    57.7                  35          
1987-12-30 12   14.8    56.9                  35          
1987-12-30 18   14.9    56.2                  35          
1987-12-31 00   15.1    55.7                  35          
1987-12-31 06   15.5    55.8                  30          
1987-12-31 12   15.9    56.1                  30          
1987-12-31 18   15.9    55.3                  30          
1988-01-01 00   15.4    53.3                  30          
1988-01-01 06   15.2    51.3                  25          
1988-01-01 12   15.4    49.8                  25          
Winds are 1-min average.

Tropical cyclone tracks developed by Michael Bath using data from the Joint Typhoon Warning Centre Best Tracks and Google Maps.


[Australian Severe Weather index] [Copyright Notice] [Email Contacts] [Search This Site] [Privacy Policy]
Document: tropical_cyclone_bernandro.htm Updated: 18 September 2016